Time;durP1;ratioP1;P1;durP2;ratioP2;P2;SDS_P1;SDS_P2;PMS_P1;PMS_P2;Temp;Humidity;BMP_temperature;BMP_pressure;BME280_temperature;BME280_humidity;BME280_pressure;Samples;Min_cycle;Max_cycle;Signal;HPM_P1;HPM_P2
2021/11/07 00:01:58;;;;;;;5.97;5.20;;;11.60;99.90;;;;;;5077579;28;20323;-81
2021/11/07 00:04:36;;;;;;;9.55;4.60;;;11.60;99.90;;;;;;5079650;28;20458;-81
2021/11/07 00:07:14;;;;;;;7.43;4.95;;;11.60;99.90;;;;;;5079623;28;20200;-81
2021/11/07 00:09:47;;;;;;;6.13;4.72;;;11.60;99.90;;;;;;5086378;28;20564;-83
2021/11/07 00:12:16;;;;;;;8.32;4.97;;;11.60;99.90;;;;;;5082650;28;20208;-81
2021/11/07 00:14:47;;;;;;;6.97;4.80;;;11.60;99.90;;;;;;5079659;28;20207;-81
2021/11/07 00:17:16;;;;;;;6.57;5.37;;;11.60;99.90;;;;;;5084245;28;20658;-81
2021/11/07 00:19:46;;;;;;;6.63;4.83;;;11.60;99.90;;;;;;5082946;28;20481;-80
2021/11/07 00:22:16;;;;;;;6.33;4.97;;;11.60;99.90;;;;;;5081881;28;20456;-80
2021/11/07 00:24:47;;;;;;;7.88;4.72;;;11.60;99.90;;;;;;5085100;28;20463;-81
2021/11/07 00:27:23;;;;;;;4.82;4.30;;;11.60;99.90;;;;;;5080758;28;20573;-84
2021/11/07 00:29:57;;;;;;;10.20;4.82;;;11.50;99.90;;;;;;5079081;28;20192;-81
2021/11/07 00:32:28;;;;;;;5.47;4.50;;;11.50;99.90;;;;;;5084435;28;20196;-81
2021/11/07 00:37:43;;;;;;;4.95;4.47;;;11.50;99.90;;;;;;5084854;28;21155;-82
2021/11/07 00:40:20;;;;;;;6.45;5.00;;;11.50;99.90;;;;;;5077598;28;20213;-81
2021/11/07 00:42:53;;;;;;;6.90;5.10;;;11.50;99.90;;;;;;5079754;28;20295;-81
2021/11/07 00:45:37;;;;;;;12.73;5.00;;;11.50;99.90;;;;;;5077738;28;20472;-81
2021/11/07 00:48:20;;;;;;;9.27;5.90;;;11.40;99.90;;;;;;5075074;28;20837;-81
2021/11/07 00:50:58;;;;;;;7.00;4.22;;;11.40;99.90;;;;;;5072382;28;20226;-83
2021/11/07 00:53:44;;;;;;;5.82;5.00;;;11.40;99.90;;;;;;5081011;28;20192;-81
2021/11/07 00:56:18;;;;;;;7.20;5.00;;;11.30;99.90;;;;;;5082040;28;20223;-83
2021/11/07 00:58:57;;;;;;;6.40;4.77;;;11.30;99.90;;;;;;5077901;28;20611;-83
2021/11/07 01:01:25;;;;;;;6.43;5.10;;;11.30;99.90;;;;;;5086634;28;20485;-80
2021/11/07 01:03:53;;;;;;;8.90;5.55;;;11.30;99.90;;;;;;5080205;28;20272;-81
2021/11/07 01:06:21;;;;;;;6.00;5.50;;;11.30;99.90;;;;;;5079731;28;20199;-81
2021/11/07 01:08:49;;;;;;;5.97;4.30;;;11.30;99.90;;;;;;5081048;28;20202;-81
2021/11/07 01:11:17;;;;;;;4.82;4.32;;;11.30;99.90;;;;;;5078795;28;20230;-80
2021/11/07 01:13:44;;;;;;;7.10;4.80;;;11.30;99.90;;;;;;5076232;28;20497;-80
2021/11/07 01:16:11;;;;;;;6.70;5.40;;;11.30;99.90;;;;;;5083291;28;20192;-81
2021/11/07 01:18:39;;;;;;;7.55;5.10;;;11.30;99.90;;;;;;5077271;28;20283;-81
2021/11/07 01:21:10;;;;;;;7.65;4.95;;;11.20;99.90;;;;;;5079086;28;20252;-81
2021/11/07 01:23:42;;;;;;;11.45;5.10;;;11.20;99.90;;;;;;5076289;28;20253;-82
2021/11/07 01:26:14;;;;;;;6.80;5.45;;;11.20;99.90;;;;;;5081835;28;20195;-81
2021/11/07 01:28:46;;;;;;;6.93;4.95;;;11.20;99.90;;;;;;5081339;28;20206;-80
2021/11/07 01:31:13;;;;;;;7.25;4.65;;;11.20;99.90;;;;;;5081749;28;20195;-81
2021/11/07 01:33:41;;;;;;;7.35;4.90;;;11.20;99.90;;;;;;5078224;28;20202;-80
2021/11/07 01:36:20;;;;;;;6.90;4.80;;;11.20;99.90;;;;;;5081170;28;20756;-80
2021/11/07 01:38:50;;;;;;;7.07;4.68;;;11.20;99.90;;;;;;5079093;28;20615;-84
2021/11/07 01:41:23;;;;;;;6.72;4.32;;;11.20;99.90;;;;;;5077792;28;20219;-81
2021/11/07 01:43:51;;;;;;;13.75;4.75;;;11.20;99.90;;;;;;5083511;28;20194;-83
2021/11/07 01:46:26;;;;;;;7.68;5.40;;;11.10;99.90;;;;;;5082530;28;20243;-80
2021/11/07 01:49:00;;;;;;;7.95;4.43;;;11.10;99.90;;;;;;5074775;28;20273;-82
2021/11/07 01:51:27;;;;;;;5.57;4.60;;;11.10;99.90;;;;;;5079217;28;20245;-83
2021/11/07 01:54:04;;;;;;;4.82;4.43;;;11.10;99.90;;;;;;5081399;28;20192;-80
2021/11/07 01:56:31;;;;;;;5.28;4.85;;;11.10;99.90;;;;;;5077574;28;20192;-80
2021/11/07 01:58:58;;;;;;;11.15;5.68;;;11.00;99.90;;;;;;5083668;28;20230;-81
2021/11/07 02:01:26;;;;;;;5.55;4.97;;;11.00;99.90;;;;;;5082324;28;20362;-80
2021/11/07 02:03:53;;;;;;;5.80;5.03;;;11.00;99.90;;;;;;5077324;28;20199;-81
2021/11/07 02:06:21;;;;;;;6.50;4.95;;;11.00;99.90;;;;;;5073130;28;20252;-80
2021/11/07 02:08:48;;;;;;;6.90;4.82;;;11.00;99.90;;;;;;5082482;28;20226;-81
2021/11/07 02:11:17;;;;;;;7.00;4.82;;;11.00;99.90;;;;;;5074835;28;20198;-81
2021/11/07 02:13:44;;;;;;;4.95;4.45;;;11.00;99.90;;;;;;5079587;28;20197;-81
2021/11/07 02:16:11;;;;;;;5.22;4.72;;;11.00;99.90;;;;;;5082547;28;20222;-79
2021/11/07 02:18:38;;;;;;;5.25;4.75;;;10.90;99.90;;;;;;5083874;28;20207;-80
2021/11/07 02:21:07;;;;;;;5.53;5.03;;;10.90;99.90;;;;;;5086132;28;20217;-80
2021/11/07 02:23:35;;;;;;;7.88;5.40;;;10.90;99.90;;;;;;5090351;28;20449;-81
2021/11/07 02:26:05;;;;;;;5.55;5.03;;;10.90;99.90;;;;;;5079586;28;20227;-80
2021/11/07 02:28:34;;;;;;;7.20;5.07;;;10.90;99.90;;;;;;5084663;28;20503;-80
2021/11/07 02:31:02;;;;;;;5.68;5.18;;;10.90;99.90;;;;;;5079012;28;20204;-80
2021/11/07 02:33:30;;;;;;;8.57;5.43;;;10.90;99.90;;;;;;5083649;28;20214;-83
2021/11/07 02:35:57;;;;;;;8.75;6.18;;;10.90;99.90;;;;;;5082719;28;20208;-80
2021/11/07 02:38:25;;;;;;;5.93;5.43;;;10.90;99.90;;;;;;5078974;28;20526;-82
2021/11/07 02:40:52;;;;;;;6.25;5.13;;;10.90;99.90;;;;;;5079452;28;20208;-80
2021/11/07 02:43:19;;;;;;;5.78;4.90;;;10.90;99.90;;;;;;5084860;28;20767;-81
2021/11/07 02:45:46;;;;;;;8.07;5.60;;;10.90;99.90;;;;;;5082944;28;20551;-80
2021/11/07 02:48:13;;;;;;;5.63;5.13;;;10.90;99.90;;;;;;5082718;28;20203;-79
2021/11/07 02:50:41;;;;;;;6.00;5.45;;;10.90;99.90;;;;;;5088483;28;20211;-81
2021/11/07 02:53:08;;;;;;;6.32;5.82;;;10.90;99.90;;;;;;5078684;28;20199;-80
2021/11/07 02:55:37;;;;;;;8.25;5.80;;;10.90;99.90;;;;;;5076599;28;20721;-80
2021/11/07 02:58:04;;;;;;;9.10;5.90;;;10.90;99.90;;;;;;5078994;28;20196;-80
2021/11/07 03:00:33;;;;;;;6.93;5.25;;;10.90;99.90;;;;;;5082596;28;20286;-80
2021/11/07 03:03:00;;;;;;;5.85;5.35;;;10.90;99.90;;;;;;5084301;28;20669;-80
2021/11/07 03:05:31;;;;;;;6.65;5.97;;;10.90;99.90;;;;;;5080095;28;20206;-80
2021/11/07 03:07:58;;;;;;;8.02;7.20;;;10.90;99.90;;;;;;5084798;28;20199;-81
2021/11/07 03:10:30;;;;;;;8.20;6.88;;;10.90;99.90;;;;;;5081434;28;20217;-80
2021/11/07 03:13:07;;;;;;;6.93;6.43;;;11.00;99.90;;;;;;5082938;28;20655;-80
2021/11/07 03:15:35;;;;;;;7.18;6.60;;;11.00;99.90;;;;;;5073479;28;20199;-79
2021/11/07 03:18:02;;;;;;;7.60;6.75;;;11.00;99.90;;;;;;5086438;28;20234;-79
2021/11/07 03:20:29;;;;;;;8.30;7.15;;;11.00;99.90;;;;;;5079308;28;20425;-81
2021/11/07 03:22:56;;;;;;;7.55;6.47;;;10.90;99.90;;;;;;5079895;28;20234;-81
2021/11/07 03:25:25;;;;;;;7.72;7.03;;;10.90;99.90;;;;;;5076139;28;20246;-80
2021/11/07 03:27:53;;;;;;;9.43;6.30;;;11.00;99.90;;;;;;5076970;28;20262;-80
2021/11/07 03:30:33;;;;;;;6.75;6.15;;;11.00;99.90;;;;;;5074374;28;20220;-80
2021/11/07 03:33:11;;;;;;;6.82;5.80;;;11.00;99.90;;;;;;5078964;28;20222;-80
2021/11/07 03:35:38;;;;;;;6.18;5.60;;;11.00;99.90;;;;;;5090382;28;20567;-80
2021/11/07 03:38:06;;;;;;;5.45;4.95;;;11.00;99.90;;;;;;5084673;28;20205;-81
2021/11/07 03:40:35;;;;;;;5.68;5.20;;;11.00;99.90;;;;;;5084435;28;20559;-79
2021/11/07 03:43:02;;;;;;;6.35;5.70;;;11.00;99.90;;;;;;5076076;28;20272;-79
2021/11/07 03:45:30;;;;;;;6.15;5.65;;;11.10;99.90;;;;;;5084698;28;20199;-80
2021/11/07 03:47:57;;;;;;;6.15;5.20;;;11.00;99.90;;;;;;5081398;28;20228;-80
2021/11/07 03:50:27;;;;;;;5.43;4.93;;;11.00;99.90;;;;;;5086016;28;20286;-82
2021/11/07 03:52:54;;;;;;;6.72;6.10;;;11.10;99.90;;;;;;5076529;28;20204;-80
2021/11/07 03:55:22;;;;;;;6.30;5.80;;;11.10;99.90;;;;;;5081521;28;20191;-80
2021/11/07 03:57:49;;;;;;;5.80;5.30;;;11.10;99.90;;;;;;5081615;28;20198;-79
2021/11/07 04:00:19;;;;;;;6.15;5.65;;;11.10;99.90;;;;;;5084997;28;20196;-79
2021/11/07 04:02:49;;;;;;;5.75;5.18;;;11.10;99.90;;;;;;5085296;28;20272;-80
2021/11/07 04:05:17;;;;;;;6.07;5.47;;;11.10;99.90;;;;;;5082623;28;20199;-80
2021/11/07 04:07:44;;;;;;;5.65;5.20;;;11.10;99.90;;;;;;5079495;28;20651;-81
2021/11/07 04:10:12;;;;;;;5.63;5.13;;;11.10;99.90;;;;;;5081719;28;20322;-80
2021/11/07 04:12:39;;;;;;;5.50;5.00;;;11.10;99.90;;;;;;5079425;28;20224;-80
2021/11/07 04:15:08;;;;;;;8.25;6.18;;;11.10;99.90;;;;;;5076105;28;20600;-83
2021/11/07 04:17:35;;;;;;;6.68;6.00;;;11.10;99.90;;;;;;5083902;28;20200;-80
2021/11/07 04:20:05;;;;;;;7.45;6.80;;;11.10;99.90;;;;;;5079506;28;20287;-83
2021/11/07 04:22:32;;;;;;;6.73;6.13;;;11.10;99.90;;;;;;5075377;28;20216;-81
2021/11/07 04:24:59;;;;;;;7.05;6.45;;;11.10;99.90;;;;;;5079570;28;20454;-82
2021/11/07 04:27:26;;;;;;;7.13;6.10;;;11.10;99.90;;;;;;5082464;28;20318;-82
2021/11/07 04:29:53;;;;;;;5.88;5.38;;;11.10;99.90;;;;;;5080232;28;20454;-80
2021/11/07 04:32:20;;;;;;;6.93;6.32;;;11.20;99.90;;;;;;5079251;28;20194;-80
2021/11/07 04:34:47;;;;;;;7.30;6.50;;;11.20;99.90;;;;;;5084624;28;20195;-80
2021/11/07 04:37:16;;;;;;;7.38;6.72;;;11.20;99.90;;;;;;5078014;28;20211;-81
2021/11/07 04:39:43;;;;;;;6.22;5.63;;;11.20;99.90;;;;;;5072962;28;20204;-80
2021/11/07 04:42:11;;;;;;;7.28;6.63;;;11.20;99.90;;;;;;5082468;28;20242;-80
2021/11/07 04:44:38;;;;;;;7.77;6.13;;;11.20;99.90;;;;;;5076711;28;20209;-82
2021/11/07 04:47:05;;;;;;;6.28;5.68;;;11.20;99.90;;;;;;5084288;28;20450;-80
2021/11/07 04:49:33;;;;;;;7.07;6.35;;;11.20;99.90;;;;;;5079497;28;20226;-82
2021/11/07 04:52:00;;;;;;;7.15;6.45;;;11.30;99.90;;;;;;5077387;28;20210;-80
2021/11/07 04:54:29;;;;;;;7.45;6.70;;;11.30;99.90;;;;;;5077244;28;20307;-82
2021/11/07 04:56:57;;;;;;;7.20;6.33;;;11.30;99.90;;;;;;5079142;28;20623;-83
2021/11/07 04:59:25;;;;;;;8.10;5.55;;;11.30;99.90;;;;;;5082143;28;20462;-80
2021/11/07 05:01:52;;;;;;;7.57;6.80;;;11.30;99.90;;;;;;5075481;28;20445;-80
2021/11/07 05:04:19;;;;;;;5.88;5.38;;;11.30;99.90;;;;;;5079443;28;20188;-80
2021/11/07 05:06:50;;;;;;;6.13;5.57;;;11.30;99.90;;;;;;5076083;28;20219;-79
2021/11/07 05:09:17;;;;;;;5.20;4.80;;;11.30;99.90;;;;;;5078308;28;20212;-80
2021/11/07 05:11:46;;;;;;;5.57;5.07;;;11.30;99.90;;;;;;5082599;28;20948;-80
2021/11/07 05:14:14;;;;;;;5.80;5.30;;;11.30;99.90;;;;;;5080991;28;20199;-83
2021/11/07 05:16:41;;;;;;;6.00;5.50;;;11.40;99.90;;;;;;5079994;28;20544;-80
2021/11/07 05:19:07;;;;;;;6.77;6.07;;;11.30;99.90;;;;;;5079027;28;20200;-83
2021/11/07 05:21:34;;;;;;;6.75;6.03;;;11.30;99.90;;;;;;5077458;28;21390;-82
2021/11/07 05:24:01;;;;;;;6.30;5.80;;;11.40;99.90;;;;;;5079609;28;20196;-80
2021/11/07 05:26:28;;;;;;;5.45;4.95;;;11.40;99.90;;;;;;5076263;28;20187;-80
2021/11/07 05:28:57;;;;;;;5.53;5.03;;;11.40;99.90;;;;;;5081643;28;20204;-79
2021/11/07 05:31:24;;;;;;;5.75;4.90;;;11.40;99.90;;;;;;5077779;28;20187;-81
2021/11/07 05:33:51;;;;;;;6.90;6.20;;;11.40;99.90;;;;;;5077956;28;20554;-79
2021/11/07 05:36:19;;;;;;;6.15;5.55;;;11.40;99.90;;;;;;5081179;28;20482;-80
2021/11/07 05:38:46;;;;;;;6.47;5.88;;;11.40;99.90;;;;;;5075922;28;20195;-80
2021/11/07 05:41:14;;;;;;;6.78;5.82;;;11.40;99.90;;;;;;5081390;28;20199;-82
2021/11/07 05:43:41;;;;;;;7.40;6.05;;;11.50;99.90;;;;;;5085839;28;20231;-81
2021/11/07 05:46:09;;;;;;;6.50;5.90;;;11.50;99.90;;;;;;5082208;28;20634;-80
2021/11/07 05:48:39;;;;;;;6.32;5.72;;;11.50;99.90;;;;;;5083667;28;20366;-79
2021/11/07 05:51:06;;;;;;;5.90;5.30;;;11.50;99.90;;;;;;5077702;28;20189;-81
2021/11/07 05:53:34;;;;;;;6.65;6.05;;;11.50;99.90;;;;;;5077460;28;20192;-82
2021/11/07 05:56:01;;;;;;;7.37;6.30;;;11.50;99.90;;;;;;5081431;28;20285;-79
2021/11/07 05:58:28;;;;;;;6.50;5.60;;;11.50;99.90;;;;;;5076957;28;20792;-80
2021/11/07 06:00:56;;;;;;;7.50;5.57;;;11.50;99.90;;;;;;5081357;28;20238;-80
2021/11/07 06:03:25;;;;;;;9.95;6.25;;;11.50;99.90;;;;;;5086362;28;20221;-81
2021/11/07 06:05:52;;;;;;;7.03;5.68;;;11.60;99.90;;;;;;5077144;28;20440;-80
2021/11/07 06:08:19;;;;;;;8.60;5.82;;;11.50;99.90;;;;;;5077680;28;20201;-80
2021/11/07 06:10:46;;;;;;;7.40;6.40;;;11.60;99.90;;;;;;5083087;28;20208;-79
2021/11/07 06:13:14;;;;;;;7.97;5.80;;;11.60;99.90;;;;;;5082843;28;20472;-82
2021/11/07 06:15:40;;;;;;;6.13;5.55;;;11.60;99.90;;;;;;5085432;28;20656;-80
2021/11/07 06:18:08;;;;;;;6.60;6.00;;;11.60;99.90;;;;;;5083734;28;20208;-82
2021/11/07 06:20:37;;;;;;;5.60;4.97;;;11.60;99.90;;;;;;5081203;28;20188;-80
2021/11/07 06:23:05;;;;;;;6.60;5.97;;;11.60;99.90;;;;;;5084088;28;20509;-84
2021/11/07 06:25:32;;;;;;;6.85;5.97;;;11.70;99.90;;;;;;5081209;28;20482;-80
2021/11/07 06:28:00;;;;;;;9.07;5.93;;;11.70;99.90;;;;;;5083528;28;20803;-81
2021/11/07 06:30:28;;;;;;;8.15;6.72;;;11.70;99.90;;;;;;5080566;28;20540;-80
2021/11/07 06:32:55;;;;;;;8.73;7.87;;;11.70;99.90;;;;;;5083578;28;20203;-80
2021/11/07 06:35:22;;;;;;;11.95;10.80;;;11.70;99.90;;;;;;5080984;28;20482;-80
2021/11/07 06:37:51;;;;;;;12.20;11.00;;;11.70;99.90;;;;;;5082137;28;20199;-80
2021/11/07 06:40:19;;;;;;;11.97;7.70;;;11.70;99.90;;;;;;5077898;28;20184;-83
2021/11/07 06:42:46;;;;;;;6.80;6.20;;;11.80;99.90;;;;;;5084541;28;20485;-80
2021/11/07 06:45:14;;;;;;;6.80;6.10;;;11.80;99.90;;;;;;5082568;28;20652;-80
2021/11/07 06:47:41;;;;;;;8.00;7.17;;;11.80;99.90;;;;;;5086743;28;20461;-80
2021/11/07 06:50:11;;;;;;;8.40;7.27;;;11.80;99.90;;;;;;5080611;28;20511;-80
2021/11/07 06:52:37;;;;;;;7.57;6.97;;;11.80;99.90;;;;;;5081786;28;20460;-80
2021/11/07 06:55:08;;;;;;;8.45;7.60;;;11.80;99.90;;;;;;5079538;28;20188;-80
2021/11/07 06:57:35;;;;;;;8.80;7.82;;;11.80;99.90;;;;;;5081070;28;20208;-80
2021/11/07 07:00:02;;;;;;;7.10;6.50;;;11.80;99.90;;;;;;5082590;28;20211;-80
2021/11/07 07:02:30;;;;;;;7.27;6.63;;;11.80;99.90;;;;;;5080755;28;20844;-80
2021/11/07 07:04:57;;;;;;;7.73;6.70;;;11.80;99.90;;;;;;5084363;28;20468;-81
2021/11/07 07:07:24;;;;;;;6.47;5.87;;;11.80;99.90;;;;;;5084223;28;20454;-83
2021/11/07 07:09:54;;;;;;;8.83;6.70;;;11.80;99.90;;;;;;5083985;28;20950;-82
2021/11/07 07:12:28;;;;;;;6.80;6.07;;;11.80;99.90;;;;;;5078173;28;20540;-80
2021/11/07 07:15:01;;;;;;;9.50;8.60;;;11.80;99.90;;;;;;5083334;28;20454;-81
2021/11/07 07:17:33;;;;;;;9.57;8.67;;;11.80;99.90;;;;;;5084860;28;20845;-79
2021/11/07 07:20:22;;;;;;;11.00;9.03;;;11.80;99.90;;;;;;5084656;28;20457;-81
2021/11/07 07:23:16;;;;;;;12.13;9.07;;;11.80;99.90;;;;;;5079375;28;20534;-80
2021/11/07 07:28:39;;;;;;;11.20;7.73;;;11.90;99.90;;;;;;5085575;28;20460;-82
2021/11/07 07:33:59;;;;;;;7.90;7.10;;;11.90;99.90;;;;;;5064576;28;20441;-80
2021/11/07 07:36:26;;;;;;;9.50;8.60;;;11.90;99.90;;;;;;5074704;28;20539;-80
2021/11/07 07:38:53;;;;;;;12.93;9.32;;;11.90;99.90;;;;;;5081685;28;20475;-80
2021/11/07 07:41:20;;;;;;;8.77;7.87;;;11.90;99.90;;;;;;5076108;28;20189;-80
2021/11/07 07:43:49;;;;;;;11.57;8.47;;;12.00;99.90;;;;;;5077014;28;20510;-80
2021/11/07 07:46:16;;;;;;;9.13;8.00;;;11.90;99.90;;;;;;5081851;28;20466;-80
2021/11/07 07:48:45;;;;;;;9.30;7.97;;;12.00;99.90;;;;;;5082179;28;20462;-80
2021/11/07 07:51:13;;;;;;;10.00;7.80;;;12.00;99.90;;;;;;5080629;28;20458;-80
2021/11/07 07:53:42;;;;;;;12.33;7.80;;;12.00;99.90;;;;;;5080695;28;20814;-81
2021/11/07 07:56:10;;;;;;;11.60;7.32;;;11.90;99.90;;;;;;5076954;28;20458;-80
2021/11/07 07:58:38;;;;;;;8.03;7.27;;;12.00;99.90;;;;;;5076826;28;20196;-79
2021/11/07 08:01:08;;;;;;;11.23;7.57;;;12.00;99.90;;;;;;5076823;28;21022;-80
2021/11/07 08:03:35;;;;;;;8.27;6.47;;;12.00;99.90;;;;;;5079436;28;20482;-80
2021/11/07 08:06:03;;;;;;;11.75;6.38;;;12.00;99.90;;;;;;5083773;28;20997;-83
2021/11/07 08:08:29;;;;;;;8.32;7.53;;;12.00;99.90;;;;;;5079092;28;20278;-80
2021/11/07 08:10:57;;;;;;;8.53;6.90;;;12.00;99.90;;;;;;5082815;28;20279;-80
2021/11/07 08:13:24;;;;;;;10.07;7.10;;;12.00;99.90;;;;;;5078534;28;20465;-80
2021/11/07 08:15:51;;;;;;;12.63;6.73;;;12.00;99.90;;;;;;5082731;28;20196;-80
2021/11/07 08:18:20;;;;;;;8.57;5.77;;;12.00;99.90;;;;;;5083202;28;20566;-80
2021/11/07 08:20:47;;;;;;;7.20;6.30;;;12.10;99.90;;;;;;5074320;28;20459;-82
2021/11/07 08:23:16;;;;;;;8.47;7.03;;;12.10;99.90;;;;;;5072639;28;20878;-81
2021/11/07 08:25:43;;;;;;;10.67;6.80;;;12.10;99.90;;;;;;5072381;28;20867;-81
2021/11/07 08:28:10;;;;;;;10.03;7.50;;;12.20;99.90;;;;;;5078194;28;20836;-80
2021/11/07 08:30:41;;;;;;;7.00;6.30;;;12.10;99.90;;;;;;5074945;28;20725;-80
2021/11/07 08:33:08;;;;;;;8.70;6.35;;;12.20;99.90;;;;;;5077718;28;20465;-80
2021/11/07 08:35:39;;;;;;;10.88;5.82;;;12.20;99.90;;;;;;5074451;28;20212;-80
2021/11/07 08:38:10;;;;;;;10.20;6.40;;;12.20;99.90;;;;;;5075956;28;20698;-80
2021/11/07 08:40:40;;;;;;;7.77;6.40;;;12.30;99.90;;;;;;5080289;28;20539;-82
2021/11/07 08:43:11;;;;;;;8.50;7.53;;;12.30;99.90;;;;;;5079419;28;20486;-82
2021/11/07 09:02:25;;;;;;;10.53;5.80;;;12.40;99.90;;;;;;5074578;28;20493;-80
2021/11/07 09:04:59;;;;;;;9.47;5.23;;;12.50;99.90;;;;;;5079440;28;20474;-80
2021/11/07 09:07:38;;;;;;;8.80;5.83;;;12.50;99.90;;;;;;5079427;28;20465;-81
2021/11/07 09:10:07;;;;;;;9.97;6.03;;;12.50;99.90;;;;;;5078979;28;20458;-80
2021/11/07 09:12:35;;;;;;;7.90;5.70;;;12.60;99.90;;;;;;5076748;28;20465;-80
2021/11/07 09:15:02;;;;;;;8.50;6.17;;;12.50;99.90;;;;;;5080535;28;21023;-80
2021/11/07 09:17:29;;;;;;;7.10;4.40;;;12.60;99.90;;;;;;5077076;28;20938;-83
2021/11/07 09:19:57;;;;;;;11.13;5.87;;;12.60;99.90;;;;;;5078723;28;20454;-80
2021/11/07 09:22:30;;;;;;;5.63;3.50;;;12.60;99.90;;;;;;5083226;28;20477;-82
2021/11/07 09:25:01;;;;;;;11.17;4.50;;;12.70;99.90;;;;;;5082114;28;20454;-80
2021/11/07 09:27:32;;;;;;;9.87;4.40;;;12.70;99.90;;;;;;5086497;28;20612;-80
2021/11/07 09:30:04;;;;;;;9.73;4.90;;;12.70;99.90;;;;;;5078132;28;20467;-81
2021/11/07 09:32:41;;;;;;;8.97;3.80;;;12.70;99.90;;;;;;5081650;28;20493;-83
2021/11/07 09:35:26;;;;;;;10.87;4.20;;;12.70;99.90;;;;;;5082325;28;20830;-80
2021/11/07 09:37:57;;;;;;;8.13;3.60;;;12.70;99.90;;;;;;5081348;28;20464;-81
2021/11/07 09:40:29;;;;;;;9.23;3.93;;;12.70;99.90;;;;;;5081449;28;20500;-81
2021/11/07 09:45:46;;;;;;;10.47;4.00;;;12.80;99.90;;;;;;5081254;28;20780;-81
2021/11/07 09:48:16;;;;;;;15.80;3.77;;;12.80;99.90;;;;;;5088818;28;20459;-82
2021/11/07 09:50:46;;;;;;;5.50;3.63;;;12.80;99.90;;;;;;5082525;28;20543;-81
2021/11/07 09:53:13;;;;;;;20.47;4.60;;;12.80;99.90;;;;;;5080118;28;20859;-80
2021/11/07 09:55:44;;;;;;;12.53;3.97;;;12.80;99.90;;;;;;5081287;28;20472;-82
2021/11/07 09:58:11;;;;;;;10.37;4.70;;;12.80;99.90;;;;;;5080371;28;20458;-79
2021/11/07 10:00:42;;;;;;;14.63;4.97;;;12.80;99.90;;;;;;5086208;28;20474;-81
2021/11/07 10:03:11;;;;;;;9.83;4.30;;;12.90;99.90;;;;;;5080232;28;20478;-80
2021/11/07 10:05:39;;;;;;;17.00;4.53;;;12.90;99.90;;;;;;5082990;28;20456;-82
2021/11/07 10:08:09;;;;;;;6.13;3.53;;;12.90;99.90;;;;;;5084464;28;20456;-82
2021/11/07 10:10:40;;;;;;;10.23;4.40;;;12.90;99.90;;;;;;5082710;28;20874;-81
2021/11/07 10:13:12;;;;;;;16.93;5.03;;;12.90;99.90;;;;;;5079934;28;20478;-82
2021/11/07 10:15:45;;;;;;;13.13;4.57;;;12.90;99.90;;;;;;5087192;28;20665;-83
2021/11/07 10:18:21;;;;;;;12.17;4.57;;;13.00;99.90;;;;;;5087724;28;20459;-80
2021/11/07 10:20:54;;;;;;;10.90;3.30;;;13.00;99.90;;;;;;5082399;28;20459;-81
2021/11/07 10:23:27;;;;;;;11.47;3.50;;;13.00;99.90;;;;;;5081770;28;20561;-83
2021/11/07 10:26:01;;;;;;;10.47;3.70;;;13.00;99.90;;;;;;5075582;28;20453;-81
2021/11/07 10:28:34;;;;;;;9.70;3.87;;;13.00;99.90;;;;;;5082086;28;20452;-81
2021/11/07 10:31:09;;;;;;;10.60;3.57;;;13.00;99.90;;;;;;5083856;28;20964;-81
2021/11/07 10:33:59;;;;;;;13.13;4.40;;;13.00;99.90;;;;;;5080456;28;20460;-81
2021/11/07 10:39:31;;;;;;;20.50;3.63;;;13.00;99.90;;;;;;5079972;28;20438;-81
2021/11/07 10:47:40;;;;;;;13.13;3.30;;;13.00;99.90;;;;;;5085700;28;20528;-81
2021/11/07 10:52:59;;;;;;;14.47;3.33;;;12.90;99.90;;;;;;5080349;28;20442;-81
2021/11/07 10:55:28;;;;;;;12.63;3.13;;;12.80;99.90;;;;;;5086134;28;20460;-81
2021/11/07 10:57:57;;;;;;;12.73;4.23;;;12.80;99.90;;;;;;5079248;28;21262;-84
2021/11/07 11:00:30;;;;;;;8.37;3.00;;;12.80;99.90;;;;;;5077868;28;20460;-81
2021/11/07 11:03:00;;;;;;;8.10;3.47;;;12.80;99.90;;;;;;5074251;28;20493;-81
2021/11/07 11:05:30;;;;;;;8.37;3.50;;;12.80;99.90;;;;;;5082991;28;21073;-81
2021/11/07 11:08:01;;;;;;;8.73;3.10;;;12.80;99.90;;;;;;5076064;28;20459;-82
2021/11/07 11:10:37;;;;;;;14.20;4.50;;;12.90;99.90;;;;;;5086827;28;20464;-82
2021/11/07 11:13:10;;;;;;;13.50;7.93;;;12.90;99.90;;;;;;5084870;28;21015;-81
2021/11/07 11:15:48;;;;;;;13.33;5.00;;;13.00;99.90;;;;;;5079392;28;21150;-82
2021/11/07 11:18:34;;;;;;;12.33;3.63;;;13.00;99.90;;;;;;5079190;28;20459;-82
2021/11/07 11:21:28;;;;;;;12.70;3.57;;;13.00;99.90;;;;;;5084190;28;20457;-82
2021/11/07 11:24:06;;;;;;;7.90;3.80;;;13.00;99.90;;;;;;5081652;28;20478;-80
2021/11/07 11:26:48;;;;;;;13.70;3.70;;;13.00;99.90;;;;;;5078733;28;20555;-83
2021/11/07 11:32:19;;;;;;;14.53;3.30;;;13.00;99.90;;;;;;5061829;28;20439;-81
2021/11/07 11:34:52;;;;;;;14.77;4.20;;;13.00;99.90;;;;;;5076797;28;20465;-81
2021/11/07 11:37:23;;;;;;;10.03;3.93;;;13.00;99.90;;;;;;5083378;28;20486;-83
2021/11/07 11:39:57;;;;;;;33.17;4.30;;;13.00;99.90;;;;;;5083872;28;20460;-83
2021/11/07 11:42:28;;;;;;;12.20;2.90;;;13.00;99.90;;;;;;5080875;28;20781;-81
2021/11/07 11:44:57;;;;;;;13.27;3.20;;;13.00;99.90;;;;;;5091411;28;20557;-82
2021/11/07 11:47:42;;;;;;;6.87;2.73;;;13.00;99.90;;;;;;5087554;28;20546;-81
2021/11/07 11:50:21;;;;;;;8.83;2.83;;;13.00;99.90;;;;;;5081384;28;20484;-84
2021/11/07 11:53:00;;;;;;;10.47;3.60;;;13.00;99.90;;;;;;5073183;28;20475;-81
2021/11/07 11:55:35;;;;;;;12.60;3.23;;;13.00;99.90;;;;;;5079250;28;20540;-80
2021/11/07 11:58:17;;;;;;;8.20;2.97;;;13.00;99.90;;;;;;5082980;28;20825;-81
2021/11/07 12:00:52;;;;;;;10.10;2.73;;;13.00;99.90;;;;;;5079880;28;20467;-82
2021/11/07 12:06:33;;;;;;;9.37;2.90;;;12.90;99.90;;;;;;5078376;28;20454;-81
2021/11/07 12:09:24;;;;;;;10.10;2.53;;;12.90;99.90;;;;;;5080302;28;20464;-81
2021/11/07 12:11:56;;;;;;;18.80;4.03;;;12.90;99.90;;;;;;5080991;28;20454;-82
2021/11/07 12:14:30;;;;;;;16.90;3.90;;;12.90;99.90;;;;;;5079649;28;20500;-81
2021/11/07 12:17:01;;;;;;;22.00;3.23;;;12.90;99.90;;;;;;5076632;28;20557;-81
2021/11/07 12:19:37;;;;;;;12.77;3.80;;;12.90;99.90;;;;;;5073988;28;21057;-84
2021/11/07 12:22:13;;;;;;;8.23;2.63;;;12.90;99.90;;;;;;5072325;28;20505;-81
2021/11/07 12:25:01;;;;;;;10.27;3.27;;;13.00;99.90;;;;;;5079676;28;20478;-81
2021/11/07 12:27:34;;;;;;;11.23;4.23;;;13.00;99.90;;;;;;5077287;28;20733;-82
2021/11/07 12:30:04;;;;;;;13.10;3.40;;;13.10;99.90;;;;;;5071069;28;20456;-81
2021/11/07 12:32:36;;;;;;;8.63;2.83;;;13.10;99.90;;;;;;5076630;28;20453;-81
2021/11/07 12:35:11;;;;;;;6.57;3.40;;;13.10;99.90;;;;;;5072874;28;20470;-82
2021/11/07 12:40:47;;;;;;;10.23;2.93;;;13.20;99.90;;;;;;5081724;28;20452;-81
2021/11/07 12:43:18;;;;;;;8.37;3.53;;;13.10;99.90;;;;;;5076298;28;20545;-82
2021/11/07 12:45:48;;;;;;;14.23;3.17;;;13.20;99.90;;;;;;5080838;28;20829;-84
2021/11/07 12:48:36;;;;;;;9.77;3.00;;;13.10;99.90;;;;;;5079858;28;20449;-84
2021/11/07 12:51:08;;;;;;;14.27;3.70;;;13.10;99.90;;;;;;5071351;28;20826;-84
2021/11/07 12:54:01;;;;;;;12.27;3.90;;;13.10;99.90;;;;;;5077751;28;20576;-81
2021/11/07 12:56:30;;;;;;;19.77;4.07;;;13.10;99.90;;;;;;5084888;28;20553;-83
2021/11/07 12:58:58;;;;;;;11.73;3.97;;;13.10;99.90;;;;;;5085353;28;20455;-85
2021/11/07 13:01:26;;;;;;;15.43;3.57;;;13.10;99.90;;;;;;5073324;28;20493;-83
2021/11/07 13:04:01;;;;;;;6.27;2.83;;;13.10;99.90;;;;;;5073713;28;21075;-81
2021/11/07 13:06:35;;;;;;;10.40;3.13;;;13.10;99.90;;;;;;5073344;28;20471;-84
2021/11/07 13:09:04;;;;;;;9.83;3.27;;;13.20;99.90;;;;;;5080491;28;20460;-81
2021/11/07 13:11:39;;;;;;;8.10;2.97;;;13.20;99.90;;;;;;5077454;28;20475;-82
2021/11/07 13:14:14;;;;;;;14.20;3.80;;;13.20;99.90;;;;;;5080733;28;20454;-82
2021/11/07 13:16:54;;;;;;;8.37;3.60;;;13.30;99.90;;;;;;5081750;28;20464;-84
2021/11/07 13:19:41;;;;;;;10.53;3.60;;;13.30;99.90;;;;;;5079696;28;20446;-83
2021/11/07 13:22:50;;;;;;;5.00;2.80;;;13.40;99.90;;;;;;5078952;28;20781;-81
2021/11/07 13:25:31;;;;;;;12.20;3.90;;;13.40;99.90;;;;;;5080795;28;20479;-81
2021/11/07 13:28:15;;;;;;;10.87;3.30;;;13.40;99.90;;;;;;5074201;28;20446;-81
2021/11/07 13:30:45;;;;;;;9.53;3.80;;;13.40;99.90;;;;;;5069163;28;20466;-83
2021/11/07 13:33:22;;;;;;;12.80;3.67;;;13.40;99.90;;;;;;5074932;28;20461;-81
2021/11/07 13:35:56;;;;;;;12.60;3.33;;;13.40;99.90;;;;;;5070744;28;20507;-81
2021/11/07 13:38:26;;;;;;;10.37;3.77;;;13.40;99.90;;;;;;5073670;28;21160;-81
2021/11/07 13:40:54;;;;;;;16.77;3.30;;;13.40;99.90;;;;;;5079815;28;20451;-81
2021/11/07 13:43:27;;;;;;;11.20;4.07;;;13.30;99.90;;;;;;5076357;28;20463;-81
2021/11/07 13:45:56;;;;;;;16.37;3.90;;;13.30;99.90;;;;;;5076952;28;20522;-84
2021/11/07 13:48:29;;;;;;;13.87;4.37;;;13.30;99.90;;;;;;5081217;28;20457;-81
2021/11/07 13:50:56;;;;;;;7.90;3.53;;;13.30;99.90;;;;;;5080174;28;20521;-81